Terminal Aerodrome Forecast
Issued by NWS

Home | Current Version | Previous Version | Graphics & Text | Print | Product List | Glossary On
Versions: 1 2 3 4 5 6 7 8 9 10 11 12 13 14 15 16 17 18 19 20 21 22 23
000
FTUS43 KBIS 241200 AAA
TAFMOT
TAF AMD
KMOT 241227Z 2412/2512 11012KT P6SM SCT120
      TEMPO 2412/2414 VRB25G40KT 4SM TSRA BKN035CB
     FM241500 12012KT P6SM BKN080
     FM241600 12016KT P6SM SCT250=

USA.gov is the U.S. government's official web portal to all federal, state and local government web resources and services.